Enter the Airport ICAO Code

Search by Airport or City

Current Weather

LPMA | Madeira Airport

Funchal, Madeira, Portugal

Last Update 9 Minutes Ago

Partly Cloudy Sky

Temperature of 23 ºC

Moderate Winds from North

Temperature

23 ºC

Dew Point Temperature

19 ºC

Relative Humidity

78.33 %

Wind Direction

North (020º, Without Significant Variations)

Wind Velocity

24 km/h (13 kt)

Gusts

None

Visibility

Greater than 10 Kilometers

Sea Level Pressure

1025 hPa (Hectopascals)

Layers of Clouds

30% to 60% of Sky Covered from 457 mts (1500 ft) Above Ground Level.

METAR LPMA 202200Z 02013KT 9999 SCT015 23/19 Q1025

Weather Forecast

LPMA | Madeira Airport

Funchal, Madeira, Portugal

Forecast valid for the next 20 Hours

From now on it is expected:

Partly Cloudy Sky

Moderate Winds from NorthEast

From now on it is expected 20 hours with intermittent periods of:

Moderate to Strong Winds from North with Gusts

Maximum Temperature

No Data

Minimum Temperature

No Data

TAF LPMA 201700Z 2018/2118 03015KT 9999 SCT015 TEMPO 2018/2118 02020G32KT